UAE7PE EGNT-LIMC
Flight info
| Callsign | UAE7PE |
|---|---|
| Flight time | 1h 47m |
| Altitude | 33000 |
| Route | GIRLI DCT ERKIT L602 OTR L90 DOLAS DCT NAVPI DCT MAVAS DCT BUB M624 REMBA DCT SUTAL DCT GTQ DCT ODINA |
| Aircraft | A359/H-SDE2E3GHIJ3J4J5LM1ORWXY/LB1D1 |
Departure
| Time | 2026-05-05 14:58 |
|---|---|
| Airport | Newcastle International Airport (EGNT) |
Arrival
| Time | 2026-05-05 16:45 |
|---|---|
| Airport | Milan Malpensa International Airport (LIMC) |
| Time | Latitude | Longitude | Altitude | Speed | Heading |
|---|---|---|---|---|---|
| 2026-05-05 14:21 | 55.03698 | -1.70548 | 265 ft | 0 kts | 264° |
| 2026-05-05 14:45 | 55.03699 | -1.70542 | 266 ft | 3 kts | 264° |
| 2026-05-05 14:46 | 55.03704 | -1.70497 | 268 ft | 4 kts | 257° |
| 2026-05-05 14:46 | 55.03709 | -1.70459 | 268 ft | 4 kts | 237° |
| 2026-05-05 14:46 | 55.03729 | -1.70433 | 267 ft | 4 kts | 192° |
| 2026-05-05 14:46 | 55.03750 | -1.70428 | 265 ft | 1 kts | 184° |
| 2026-05-05 14:47 | 55.03753 | -1.70422 | 265 ft | 0 kts | 184° |
| 2026-05-05 14:54 | 55.03702 | -1.70429 | 267 ft | 14 kts | 185° |
| 2026-05-05 14:54 | 55.03658 | -1.70436 | 266 ft | 0 kts | 186° |
| 2026-05-05 14:55 | 55.03657 | -1.70436 | 266 ft | 1 kts | 186° |
| 2026-05-05 14:55 | 55.03621 | -1.70460 | 267 ft | 9 kts | 217° |
| 2026-05-05 14:55 | 55.03596 | -1.70561 | 268 ft | 11 kts | 260° |
| 2026-05-05 14:56 | 55.03545 | -1.70643 | 267 ft | 12 kts | 192° |
| 2026-05-05 14:56 | 55.03453 | -1.70649 | 268 ft | 15 kts | 181° |
| 2026-05-05 14:56 | 55.03380 | -1.70622 | 268 ft | 7 kts | 139° |
| 2026-05-05 14:56 | 55.03372 | -1.70595 | 268 ft | 1 kts | 103° |
| 2026-05-05 14:57 | 55.03380 | -1.70550 | 267 ft | 6 kts | 69° |
| 2026-05-05 14:57 | 55.03429 | -1.70354 | 267 ft | 45 kts | 65° |
| 2026-05-05 14:57 | 55.03666 | -1.69463 | 263 ft | 116 kts | 65° |
| 2026-05-05 14:57 | 55.04069 | -1.67939 | 625 ft | 144 kts | 62° |
| 2026-05-05 14:58 | 55.04495 | -1.66384 | 1518 ft | 142 kts | 61° |
| 2026-05-05 14:58 | 55.04899 | -1.64743 | 2056 ft | 156 kts | 63° |
| 2026-05-05 14:58 | 55.05349 | -1.62880 | 2382 ft | 177 kts | 62° |
| 2026-05-05 14:58 | 55.05873 | -1.60781 | 2697 ft | 197 kts | 61° |
| 2026-05-05 14:59 | 55.06350 | -1.58550 | 3412 ft | 198 kts | 74° |
| 2026-05-05 14:59 | 55.06212 | -1.56114 | 4027 ft | 209 kts | 109° |
| 2026-05-05 14:59 | 55.05273 | -1.54063 | 4404 ft | 233 kts | 142° |
| 2026-05-05 14:59 | 55.03677 | -1.53092 | 4666 ft | 257 kts | 176° |
| 2026-05-05 15:00 | 55.01828 | -1.53038 | 5100 ft | 274 kts | 182° |
| 2026-05-05 15:00 | 55.00550 | -1.53090 | 5479 ft | 280 kts | 182° |
| 2026-05-05 15:00 | 54.97963 | -1.53362 | 6537 ft | 278 kts | 193° |
| 2026-05-05 15:00 | 54.96171 | -1.54549 | 7306 ft | 275 kts | 210° |
| 2026-05-05 15:01 | 54.94532 | -1.56195 | 7848 ft | 276 kts | 214° |
| 2026-05-05 15:01 | 54.92886 | -1.57931 | 8049 ft | 277 kts | 213° |
| 2026-05-05 15:01 | 54.91105 | -1.59291 | 8319 ft | 284 kts | 198° |
| 2026-05-05 15:01 | 54.89118 | -1.59557 | 9027 ft | 290 kts | 174° |
| 2026-05-05 15:02 | 54.87156 | -1.58692 | 9834 ft | 293 kts | 163° |
| 2026-05-05 15:02 | 54.85247 | -1.57292 | 10363 ft | 304 kts | 156° |
| 2026-05-05 15:02 | 54.83317 | -1.55546 | 10628 ft | 321 kts | 153° |
| 2026-05-05 15:02 | 54.81319 | -1.53587 | 10894 ft | 338 kts | 152° |
| 2026-05-05 15:03 | 54.79232 | -1.51520 | 11174 ft | 352 kts | 152° |
| 2026-05-05 15:03 | 54.77077 | -1.49424 | 11662 ft | 357 kts | 153° |
| 2026-05-05 15:03 | 54.74885 | -1.47340 | 12235 ft | 361 kts | 153° |
| 2026-05-05 15:03 | 54.72663 | -1.45272 | 12771 ft | 364 kts | 154° |
| 2026-05-05 15:04 | 54.70415 | -1.43209 | 13339 ft | 368 kts | 154° |
| 2026-05-05 15:04 | 54.68138 | -1.41139 | 13859 ft | 372 kts | 155° |
| 2026-05-05 15:04 | 54.65870 | -1.39085 | 14375 ft | 374 kts | 155° |
| 2026-05-05 15:04 | 54.63556 | -1.36993 | 14891 ft | 376 kts | 155° |
| 2026-05-05 15:05 | 54.58887 | -1.32773 | 15929 ft | 381 kts | 155° |
| 2026-05-05 15:05 | 54.56529 | -1.30644 | 16437 ft | 384 kts | 155° |
| 2026-05-05 15:05 | 54.54148 | -1.28496 | 16956 ft | 386 kts | 155° |
| 2026-05-05 15:06 | 54.51758 | -1.26342 | 17470 ft | 389 kts | 155° |
| 2026-05-05 15:06 | 54.49351 | -1.24176 | 17973 ft | 391 kts | 155° |
| 2026-05-05 15:06 | 54.46929 | -1.21999 | 18434 ft | 394 kts | 155° |
| 2026-05-05 15:06 | 54.44490 | -1.19809 | 18862 ft | 396 kts | 155° |
| 2026-05-05 15:07 | 54.42039 | -1.17611 | 19298 ft | 398 kts | 155° |
| 2026-05-05 15:07 | 54.39575 | -1.15404 | 19747 ft | 400 kts | 155° |
| 2026-05-05 15:07 | 54.37101 | -1.13191 | 20174 ft | 402 kts | 155° |
| 2026-05-05 15:07 | 54.34613 | -1.10971 | 20585 ft | 404 kts | 156° |
| 2026-05-05 15:08 | 54.32112 | -1.08741 | 21020 ft | 406 kts | 156° |
| 2026-05-05 15:08 | 54.29629 | -1.06531 | 21434 ft | 408 kts | 156° |
| 2026-05-05 15:08 | 54.27101 | -1.04285 | 21822 ft | 410 kts | 156° |
| 2026-05-05 15:08 | 54.24561 | -1.02031 | 22235 ft | 412 kts | 156° |
| 2026-05-05 15:09 | 54.22013 | -0.99771 | 22656 ft | 413 kts | 156° |
| 2026-05-05 15:09 | 54.19462 | -0.97511 | 23095 ft | 414 kts | 156° |
| 2026-05-05 15:09 | 54.16895 | -0.95241 | 23478 ft | 416 kts | 156° |
| 2026-05-05 15:09 | 54.14317 | -0.92965 | 23809 ft | 418 kts | 156° |
| 2026-05-05 15:10 | 54.11726 | -0.90681 | 24107 ft | 420 kts | 156° |
| 2026-05-05 15:10 | 54.09124 | -0.88391 | 24423 ft | 422 kts | 156° |
| 2026-05-05 15:10 | 54.06515 | -0.86069 | 24737 ft | 425 kts | 154° |
| 2026-05-05 15:10 | 54.04025 | -0.83328 | 25066 ft | 430 kts | 146° |
| 2026-05-05 15:11 | 54.01778 | -0.79928 | 25406 ft | 435 kts | 137° |
| 2026-05-05 15:11 | 53.99741 | -0.76094 | 25745 ft | 438 kts | 132° |
| 2026-05-05 15:11 | 53.97832 | -0.72047 | 26113 ft | 440 kts | 130° |
| 2026-05-05 15:11 | 53.95983 | -0.67897 | 26510 ft | 441 kts | 129° |
| 2026-05-05 15:12 | 53.94169 | -0.63752 | 26897 ft | 443 kts | 129° |
| 2026-05-05 15:12 | 53.90654 | -0.55791 | 27636 ft | 447 kts | 129° |
| 2026-05-05 15:12 | 53.88763 | -0.51581 | 28046 ft | 449 kts | 129° |
| 2026-05-05 15:13 | 53.86856 | -0.47378 | 28467 ft | 451 kts | 129° |
| 2026-05-05 15:13 | 53.84931 | -0.43161 | 28876 ft | 454 kts | 129° |
| 2026-05-05 15:13 | 53.82991 | -0.38931 | 29313 ft | 456 kts | 129° |
| 2026-05-05 15:13 | 53.81040 | -0.34685 | 29718 ft | 459 kts | 130° |
| 2026-05-05 15:14 | 53.79074 | -0.30414 | 30127 ft | 461 kts | 129° |
| 2026-05-05 15:14 | 53.77120 | -0.26175 | 30501 ft | 463 kts | 129° |
| 2026-05-05 15:14 | 53.75138 | -0.21880 | 30866 ft | 465 kts | 129° |
| 2026-05-05 15:14 | 53.73142 | -0.17559 | 31249 ft | 466 kts | 129° |
| 2026-05-05 15:15 | 53.71090 | -0.13319 | 31671 ft | 466 kts | 134° |
| 2026-05-05 15:15 | 53.68762 | -0.09521 | 32004 ft | 467 kts | 141° |
| 2026-05-05 15:15 | 53.66175 | -0.06192 | 32292 ft | 469 kts | 145° |
| 2026-05-05 15:15 | 53.63496 | -0.03011 | 32587 ft | 471 kts | 146° |
| 2026-05-05 15:16 | 53.60772 | 0.00098 | 32879 ft | 473 kts | 147° |
| 2026-05-05 15:16 | 53.58038 | 0.03165 | 33001 ft | 468 kts | 147° |
| 2026-05-05 15:16 | 53.55346 | 0.06174 | 32998 ft | 462 kts | 147° |
| 2026-05-05 15:17 | 53.50373 | 0.12973 | 32989 ft | 460 kts | 138° |
| 2026-05-05 15:17 | 53.45803 | 0.20493 | 33002 ft | 460 kts | 136° |
| 2026-05-05 15:18 | 53.41305 | 0.28122 | 32992 ft | 460 kts | 135° |
| 2026-05-05 15:18 | 53.36762 | 0.35800 | 32993 ft | 476 kts | 136° |
| 2026-05-05 15:19 | 53.31989 | 0.43796 | 32989 ft | 494 kts | 136° |
| 2026-05-05 15:19 | 53.27108 | 0.51932 | 32993 ft | 495 kts | 136° |
| 2026-05-05 15:20 | 53.22212 | 0.60066 | 32983 ft | 496 kts | 137° |
| 2026-05-05 15:20 | 53.17314 | 0.68180 | 32987 ft | 496 kts | 137° |
| 2026-05-05 15:21 | 53.12398 | 0.76282 | 32977 ft | 497 kts | 137° |
| 2026-05-05 15:21 | 53.07514 | 0.84306 | 32985 ft | 497 kts | 137° |
| 2026-05-05 15:22 | 53.02592 | 0.92368 | 32977 ft | 497 kts | 137° |
| 2026-05-05 15:22 | 52.98139 | 1.01168 | 32980 ft | 501 kts | 124° |
| 2026-05-05 15:23 | 52.95168 | 1.11673 | 32974 ft | 505 kts | 114° |
| 2026-05-05 15:23 | 52.92685 | 1.22592 | 32975 ft | 506 kts | 113° |
| 2026-05-05 15:24 | 52.90255 | 1.33556 | 32975 ft | 506 kts | 113° |
| 2026-05-05 15:24 | 52.87808 | 1.44400 | 32975 ft | 506 kts | 113° |
| 2026-05-05 15:25 | 52.85293 | 1.55361 | 32973 ft | 506 kts | 114° |
| 2026-05-05 15:25 | 52.82786 | 1.66195 | 32978 ft | 508 kts | 114° |
| 2026-05-05 15:26 | 52.80248 | 1.77110 | 32974 ft | 508 kts | 114° |
| 2026-05-05 15:26 | 52.77702 | 1.88013 | 32972 ft | 508 kts | 114° |
| 2026-05-05 15:27 | 52.75147 | 1.98902 | 32974 ft | 508 kts | 114° |
| 2026-05-05 15:27 | 52.72582 | 2.09778 | 32971 ft | 508 kts | 114° |
| 2026-05-05 15:28 | 52.70011 | 2.20620 | 32969 ft | 508 kts | 114° |
| 2026-05-05 15:28 | 52.67443 | 2.31396 | 32968 ft | 508 kts | 114° |
| 2026-05-05 15:29 | 52.64848 | 2.42233 | 32964 ft | 508 kts | 114° |
| 2026-05-05 15:29 | 52.62244 | 2.53054 | 32957 ft | 507 kts | 114° |
| 2026-05-05 15:30 | 52.59634 | 2.63849 | 32959 ft | 507 kts | 114° |
| 2026-05-05 15:30 | 52.57017 | 2.74618 | 32963 ft | 506 kts | 114° |
| 2026-05-05 15:31 | 52.54082 | 2.85001 | 32958 ft | 502 kts | 125° |
| 2026-05-05 15:31 | 52.50099 | 2.94390 | 32955 ft | 500 kts | 129° |
| 2026-05-05 15:32 | 52.45935 | 3.03518 | 32940 ft | 496 kts | 130° |
| 2026-05-05 15:32 | 52.41726 | 3.12410 | 32954 ft | 491 kts | 134° |
| 2026-05-05 15:33 | 52.36612 | 3.19649 | 32959 ft | 484 kts | 149° |
| 2026-05-05 15:33 | 52.30872 | 3.25383 | 32938 ft | 483 kts | 152° |
| 2026-05-05 15:34 | 52.25033 | 3.30832 | 32955 ft | 483 kts | 153° |
| 2026-05-05 15:34 | 52.19201 | 3.36256 | 32939 ft | 481 kts | 152° |
| 2026-05-05 15:35 | 52.13448 | 3.41643 | 32942 ft | 480 kts | 152° |
| 2026-05-05 15:35 | 52.07665 | 3.47067 | 32939 ft | 478 kts | 153° |
| 2026-05-05 15:36 | 52.01911 | 3.52451 | 32940 ft | 476 kts | 153° |
| 2026-05-05 15:36 | 51.96158 | 3.57816 | 32920 ft | 475 kts | 153° |
| 2026-05-05 15:37 | 51.90425 | 3.63146 | 32920 ft | 474 kts | 153° |
| 2026-05-05 15:37 | 51.84696 | 3.68455 | 32918 ft | 474 kts | 153° |
| 2026-05-05 15:38 | 51.78965 | 3.73750 | 32907 ft | 474 kts | 153° |
| 2026-05-05 15:38 | 51.73274 | 3.78994 | 32899 ft | 474 kts | 153° |
| 2026-05-05 15:39 | 51.67538 | 3.84264 | 32903 ft | 473 kts | 153° |
| 2026-05-05 15:39 | 51.61824 | 3.89498 | 32886 ft | 472 kts | 153° |
| 2026-05-05 15:40 | 51.56122 | 3.94706 | 32886 ft | 470 kts | 153° |
| 2026-05-05 15:40 | 51.50466 | 3.99856 | 32881 ft | 470 kts | 153° |
| 2026-05-05 15:41 | 51.44767 | 4.05030 | 32880 ft | 470 kts | 152° |
| 2026-05-05 15:41 | 51.39070 | 4.10188 | 32881 ft | 471 kts | 152° |
| 2026-05-05 15:42 | 51.33368 | 4.15336 | 32883 ft | 471 kts | 152° |
| 2026-05-05 15:42 | 51.27663 | 4.20471 | 32885 ft | 471 kts | 152° |
| 2026-05-05 15:43 | 51.21958 | 4.25592 | 32884 ft | 470 kts | 152° |
| 2026-05-05 15:43 | 51.16248 | 4.30703 | 32883 ft | 470 kts | 152° |
| 2026-05-05 15:44 | 51.10542 | 4.35796 | 32884 ft | 470 kts | 152° |
| 2026-05-05 15:44 | 51.04867 | 4.40846 | 32881 ft | 470 kts | 152° |
| 2026-05-05 15:45 | 50.99155 | 4.45915 | 32884 ft | 470 kts | 152° |
| 2026-05-05 15:45 | 50.94372 | 4.50148 | 32884 ft | 470 kts | 152° |
| 2026-05-05 15:46 | 50.88974 | 4.55992 | 32886 ft | 473 kts | 140° |
| 2026-05-05 15:46 | 50.84218 | 4.63120 | 32882 ft | 474 kts | 137° |
| 2026-05-05 15:47 | 50.79555 | 4.70489 | 32866 ft | 474 kts | 137° |
| 2026-05-05 15:47 | 50.74890 | 4.77868 | 32870 ft | 473 kts | 137° |
| 2026-05-05 15:48 | 50.70221 | 4.85192 | 32871 ft | 473 kts | 137° |
| 2026-05-05 15:48 | 50.65440 | 4.92312 | 32864 ft | 472 kts | 141° |
| 2026-05-05 15:49 | 50.60411 | 4.98860 | 32864 ft | 471 kts | 142° |
| 2026-05-05 15:49 | 50.55306 | 5.05336 | 32852 ft | 471 kts | 142° |
| 2026-05-05 15:50 | 50.50193 | 5.11790 | 32848 ft | 471 kts | 143° |
| 2026-05-05 15:50 | 50.45083 | 5.18237 | 32855 ft | 472 kts | 143° |
| 2026-05-05 15:51 | 50.39966 | 5.24684 | 32848 ft | 472 kts | 143° |
| 2026-05-05 15:51 | 50.34846 | 5.31120 | 32845 ft | 471 kts | 143° |
| 2026-05-05 15:52 | 50.29717 | 5.37550 | 32837 ft | 471 kts | 143° |
| 2026-05-05 15:52 | 50.24598 | 5.43947 | 32838 ft | 470 kts | 142° |
| 2026-05-05 15:53 | 50.19489 | 5.50314 | 32832 ft | 470 kts | 142° |
| 2026-05-05 15:53 | 50.14423 | 5.56610 | 32822 ft | 468 kts | 143° |
| 2026-05-05 15:54 | 50.09335 | 5.62915 | 32827 ft | 467 kts | 143° |
| 2026-05-05 15:54 | 50.04241 | 5.69210 | 32823 ft | 467 kts | 142° |
| 2026-05-05 15:55 | 49.99125 | 5.75514 | 32817 ft | 469 kts | 142° |
| 2026-05-05 15:55 | 49.94008 | 5.81801 | 32818 ft | 469 kts | 142° |
| 2026-05-05 15:56 | 49.88885 | 5.88078 | 32817 ft | 469 kts | 142° |
| 2026-05-05 15:56 | 49.83795 | 5.94300 | 32820 ft | 468 kts | 142° |
| 2026-05-05 15:57 | 49.78691 | 6.00520 | 32820 ft | 467 kts | 142° |
| 2026-05-05 15:57 | 49.73573 | 6.06740 | 32825 ft | 468 kts | 142° |
| 2026-05-05 15:58 | 49.68453 | 6.12945 | 32832 ft | 468 kts | 142° |
| 2026-05-05 15:58 | 49.63331 | 6.19135 | 32828 ft | 468 kts | 142° |
| 2026-05-05 15:59 | 49.58197 | 6.25323 | 32828 ft | 468 kts | 142° |
| 2026-05-05 15:59 | 49.53061 | 6.31497 | 32826 ft | 469 kts | 142° |
| 2026-05-05 16:00 | 49.47872 | 6.37615 | 32822 ft | 469 kts | 146° |
| 2026-05-05 16:00 | 49.42104 | 6.42318 | 32820 ft | 469 kts | 154° |
| 2026-05-05 16:01 | 49.36187 | 6.46403 | 32824 ft | 470 kts | 155° |
| 2026-05-05 16:01 | 49.30189 | 6.50418 | 32818 ft | 471 kts | 155° |
| 2026-05-05 16:02 | 49.24173 | 6.54455 | 32818 ft | 471 kts | 155° |
| 2026-05-05 16:02 | 49.18172 | 6.58499 | 32824 ft | 472 kts | 155° |
| 2026-05-05 16:03 | 49.12196 | 6.62525 | 32822 ft | 472 kts | 155° |
| 2026-05-05 16:03 | 49.06178 | 6.66571 | 32827 ft | 473 kts | 156° |
| 2026-05-05 16:04 | 49.00135 | 6.70620 | 32822 ft | 474 kts | 156° |
| 2026-05-05 16:04 | 48.94115 | 6.74746 | 32815 ft | 474 kts | 154° |
| 2026-05-05 16:05 | 48.88154 | 6.79063 | 32830 ft | 474 kts | 154° |
| 2026-05-05 16:05 | 48.82189 | 6.83385 | 32814 ft | 475 kts | 155° |
| 2026-05-05 16:06 | 48.76210 | 6.87668 | 32817 ft | 475 kts | 155° |
| 2026-05-05 16:06 | 48.70221 | 6.91927 | 32816 ft | 475 kts | 155° |
| 2026-05-05 16:07 | 48.64226 | 6.96173 | 32793 ft | 475 kts | 155° |
| 2026-05-05 16:07 | 48.58230 | 7.00412 | 32816 ft | 476 kts | 155° |
| 2026-05-05 16:08 | 48.52262 | 7.04621 | 32818 ft | 476 kts | 155° |
| 2026-05-05 16:08 | 48.46254 | 7.08845 | 32819 ft | 476 kts | 155° |
| 2026-05-05 16:09 | 48.40239 | 7.13064 | 32819 ft | 476 kts | 155° |
| 2026-05-05 16:09 | 48.34218 | 7.17277 | 32827 ft | 477 kts | 155° |
| 2026-05-05 16:10 | 48.28190 | 7.21483 | 32829 ft | 477 kts | 155° |
| 2026-05-05 16:10 | 48.22164 | 7.25677 | 32828 ft | 477 kts | 156° |
| 2026-05-05 16:11 | 48.16135 | 7.29863 | 32828 ft | 479 kts | 156° |
| 2026-05-05 16:12 | 48.04054 | 7.38217 | 32830 ft | 480 kts | 156° |
| 2026-05-05 16:13 | 47.88876 | 7.48650 | 32832 ft | 480 kts | 157° |
| 2026-05-05 16:13 | 47.82797 | 7.52811 | 32840 ft | 480 kts | 157° |
| 2026-05-05 16:14 | 47.70635 | 7.61102 | 32850 ft | 481 kts | 158° |
| 2026-05-05 16:15 | 47.58492 | 7.69338 | 32857 ft | 481 kts | 158° |
| 2026-05-05 16:16 | 47.46289 | 7.77571 | 32857 ft | 483 kts | 159° |
| 2026-05-05 16:17 | 47.37101 | 7.83743 | 32852 ft | 484 kts | 159° |
| 2026-05-05 16:18 | 47.27906 | 7.89896 | 32851 ft | 484 kts | 159° |
| 2026-05-05 16:19 | 47.18733 | 7.96011 | 32854 ft | 485 kts | 159° |
| 2026-05-05 16:19 | 47.09587 | 8.02084 | 32868 ft | 485 kts | 160° |
| 2026-05-05 16:20 | 46.97579 | 8.10023 | 32881 ft | 485 kts | 160° |
| 2026-05-05 16:22 | 46.82441 | 8.19984 | 32496 ft | 470 kts | 162° |
| 2026-05-05 16:22 | 46.76411 | 8.23923 | 31982 ft | 477 kts | 161° |
| 2026-05-05 16:23 | 46.70380 | 8.27864 | 30626 ft | 473 kts | 161° |
| 2026-05-05 16:23 | 46.67400 | 8.29809 | 30051 ft | 467 kts | 161° |
| 2026-05-05 16:23 | 46.61543 | 8.33622 | 28773 ft | 459 kts | 161° |
| 2026-05-05 16:24 | 46.58641 | 8.35508 | 28176 ft | 452 kts | 161° |
| 2026-05-05 16:24 | 46.55779 | 8.37365 | 27581 ft | 448 kts | 161° |
| 2026-05-05 16:24 | 46.50153 | 8.41009 | 26447 ft | 438 kts | 161° |
| 2026-05-05 16:25 | 46.47388 | 8.42802 | 25865 ft | 432 kts | 161° |
| 2026-05-05 16:25 | 46.41936 | 8.46317 | 24705 ft | 424 kts | 160° |
| 2026-05-05 16:25 | 46.39252 | 8.48047 | 24162 ft | 419 kts | 161° |
| 2026-05-05 16:26 | 46.33989 | 8.51428 | 22971 ft | 412 kts | 161° |
| 2026-05-05 16:26 | 46.28792 | 8.54766 | 21810 ft | 404 kts | 160° |
| 2026-05-05 16:27 | 46.26236 | 8.56404 | 21234 ft | 400 kts | 160° |
| 2026-05-05 16:27 | 46.23712 | 8.58022 | 20664 ft | 395 kts | 161° |
| 2026-05-05 16:27 | 46.21211 | 8.59622 | 20100 ft | 392 kts | 161° |
| 2026-05-05 16:27 | 46.18726 | 8.61211 | 19494 ft | 389 kts | 161° |
| 2026-05-05 16:28 | 46.16268 | 8.62778 | 18948 ft | 385 kts | 161° |
| 2026-05-05 16:28 | 46.13827 | 8.64334 | 18366 ft | 383 kts | 161° |
| 2026-05-05 16:28 | 46.11403 | 8.65870 | 17970 ft | 374 kts | 161° |
| 2026-05-05 16:28 | 46.09018 | 8.67121 | 17813 ft | 355 kts | 166° |
| 2026-05-05 16:29 | 46.06711 | 8.68157 | 17681 ft | 339 kts | 167° |
| 2026-05-05 16:29 | 46.05235 | 8.68803 | 17586 ft | 330 kts | 168° |
| 2026-05-05 16:29 | 46.03079 | 8.69745 | 17437 ft | 318 kts | 168° |
| 2026-05-05 16:29 | 46.00339 | 8.70945 | 17175 ft | 306 kts | 168° |
| 2026-05-05 16:30 | 45.98202 | 8.71869 | 16713 ft | 329 kts | 168° |
| 2026-05-05 16:30 | 45.96013 | 8.72823 | 16147 ft | 329 kts | 168° |
| 2026-05-05 16:30 | 45.94534 | 8.73471 | 15767 ft | 327 kts | 168° |
| 2026-05-05 16:30 | 45.92386 | 8.74410 | 15231 ft | 326 kts | 167° |
| 2026-05-05 16:31 | 45.90222 | 8.75357 | 14697 ft | 325 kts | 167° |
| 2026-05-05 16:31 | 45.88049 | 8.76303 | 14162 ft | 325 kts | 167° |
| 2026-05-05 16:31 | 45.85893 | 8.77237 | 13628 ft | 323 kts | 167° |
| 2026-05-05 16:31 | 45.83735 | 8.78173 | 13051 ft | 324 kts | 167° |
| 2026-05-05 16:32 | 45.81579 | 8.79111 | 12465 ft | 323 kts | 166° |
| 2026-05-05 16:32 | 45.79427 | 8.80046 | 11903 ft | 323 kts | 166° |
| 2026-05-05 16:32 | 45.77284 | 8.80976 | 11354 ft | 321 kts | 166° |
| 2026-05-05 16:32 | 45.75150 | 8.81902 | 10882 ft | 318 kts | 166° |
| 2026-05-05 16:33 | 45.73076 | 8.82803 | 10729 ft | 304 kts | 166° |
| 2026-05-05 16:33 | 45.71105 | 8.83660 | 10662 ft | 288 kts | 166° |
| 2026-05-05 16:33 | 45.69236 | 8.84471 | 10584 ft | 273 kts | 166° |
| 2026-05-05 16:33 | 45.67447 | 8.85244 | 10375 ft | 266 kts | 166° |
| 2026-05-05 16:34 | 45.65701 | 8.85995 | 10002 ft | 265 kts | 166° |
| 2026-05-05 16:34 | 45.63935 | 8.86754 | 9603 ft | 265 kts | 166° |
| 2026-05-05 16:34 | 45.62129 | 8.87512 | 9177 ft | 276 kts | 167° |
| 2026-05-05 16:34 | 45.60232 | 8.88118 | 8742 ft | 279 kts | 171° |
| 2026-05-05 16:35 | 45.58330 | 8.88640 | 8306 ft | 278 kts | 171° |
| 2026-05-05 16:35 | 45.56437 | 8.89150 | 7876 ft | 276 kts | 171° |
| 2026-05-05 16:35 | 45.54556 | 8.89657 | 7453 ft | 274 kts | 170° |
| 2026-05-05 16:35 | 45.52686 | 8.90163 | 7041 ft | 272 kts | 170° |
| 2026-05-05 16:36 | 45.50832 | 8.90666 | 6641 ft | 271 kts | 169° |
| 2026-05-05 16:36 | 45.48985 | 8.91167 | 6209 ft | 269 kts | 169° |
| 2026-05-05 16:36 | 45.47151 | 8.91666 | 5769 ft | 267 kts | 169° |
| 2026-05-05 16:36 | 45.45352 | 8.92155 | 5352 ft | 265 kts | 169° |
| 2026-05-05 16:37 | 45.43544 | 8.92647 | 4920 ft | 264 kts | 169° |
| 2026-05-05 16:37 | 45.41744 | 8.93136 | 4527 ft | 262 kts | 169° |
| 2026-05-05 16:37 | 45.39953 | 8.93622 | 4143 ft | 261 kts | 169° |
| 2026-05-05 16:37 | 45.38156 | 8.93951 | 3881 ft | 261 kts | 182° |
| 2026-05-05 16:38 | 45.36448 | 8.93249 | 3655 ft | 252 kts | 211° |
| 2026-05-05 16:38 | 45.35257 | 8.91532 | 3484 ft | 242 kts | 240° |
| 2026-05-05 16:38 | 45.34766 | 8.89299 | 3312 ft | 234 kts | 260° |
| 2026-05-05 16:38 | 45.34566 | 8.87027 | 3126 ft | 231 kts | 263° |
| 2026-05-05 16:39 | 45.34408 | 8.84762 | 3010 ft | 230 kts | 264° |
| 2026-05-05 16:39 | 45.34612 | 8.82520 | 3010 ft | 232 kts | 290° |
| 2026-05-05 16:39 | 45.35374 | 8.80515 | 3008 ft | 230 kts | 303° |
| 2026-05-05 16:39 | 45.36639 | 8.79161 | 3005 ft | 231 kts | 343° |
| 2026-05-05 16:40 | 45.38229 | 8.79115 | 3015 ft | 231 kts | 7° |
| 2026-05-05 16:40 | 45.39834 | 8.79309 | 3001 ft | 232 kts | 2° |
| 2026-05-05 16:40 | 45.41428 | 8.79219 | 3006 ft | 232 kts | 353° |
| 2026-05-05 16:40 | 45.43022 | 8.78850 | 3005 ft | 232 kts | 349° |
| 2026-05-05 16:41 | 45.44613 | 8.78404 | 3004 ft | 233 kts | 350° |
| 2026-05-05 16:41 | 45.46206 | 8.77961 | 3006 ft | 233 kts | 350° |
| 2026-05-05 16:41 | 45.47774 | 8.77536 | 2998 ft | 221 kts | 350° |
| 2026-05-05 16:41 | 45.49226 | 8.77145 | 3010 ft | 205 kts | 350° |
| 2026-05-05 16:42 | 45.50607 | 8.76771 | 2994 ft | 199 kts | 351° |
| 2026-05-05 16:42 | 45.51946 | 8.76404 | 2728 ft | 193 kts | 351° |
| 2026-05-05 16:42 | 45.53230 | 8.76049 | 2468 ft | 183 kts | 351° |
| 2026-05-05 16:42 | 45.54453 | 8.75712 | 2214 ft | 175 kts | 351° |
| 2026-05-05 16:43 | 45.55624 | 8.75389 | 1969 ft | 167 kts | 351° |
| 2026-05-05 16:43 | 45.56725 | 8.75086 | 1736 ft | 155 kts | 350° |
| 2026-05-05 16:43 | 45.57732 | 8.74808 | 1518 ft | 144 kts | 350° |
| 2026-05-05 16:43 | 45.58675 | 8.74548 | 1325 ft | 133 kts | 349° |
| 2026-05-05 16:44 | 45.59574 | 8.74300 | 1150 ft | 130 kts | 349° |
| 2026-05-05 16:44 | 45.60460 | 8.74056 | 975 ft | 129 kts | 348° |
| 2026-05-05 16:44 | 45.61347 | 8.73809 | 830 ft | 131 kts | 348° |
| 2026-05-05 16:44 | 45.62226 | 8.73561 | 753 ft | 123 kts | 349° |
| 2026-05-05 16:45 | 45.62937 | 8.73372 | 745 ft | 81 kts | 349° |
| 2026-05-05 16:45 | 45.63324 | 8.73263 | 747 ft | 34 kts | 349° |
| 2026-05-05 16:45 | 45.63556 | 8.73192 | 750 ft | 36 kts | 341° |
| 2026-05-05 16:45 | 45.63756 | 8.73018 | 751 ft | 14 kts | 314° |
| 2026-05-05 16:46 | 45.63796 | 8.72949 | 753 ft | 9 kts | 306° |
| 2026-05-05 16:46 | 45.63839 | 8.72862 | 753 ft | 12 kts | 305° |
| 2026-05-05 16:46 | 45.63889 | 8.72758 | 754 ft | 14 kts | 304° |
| 2026-05-05 16:46 | 45.63944 | 8.72636 | 753 ft | 14 kts | 294° |
| 2026-05-05 16:47 | 45.63948 | 8.72508 | 754 ft | 12 kts | 261° |
| 2026-05-05 16:47 | 45.63931 | 8.72370 | 758 ft | 16 kts | 260° |
| 2026-05-05 16:47 | 45.63916 | 8.72202 | 755 ft | 19 kts | 267° |
| 2026-05-05 16:47 | 45.63908 | 8.72008 | 749 ft | 6 kts | 265° |
| 2026-05-05 16:48 | 45.63902 | 8.71948 | 752 ft | 6 kts | 259° |
| 2026-05-05 16:48 | 45.63895 | 8.71898 | 755 ft | 6 kts | 255° |
| 2026-05-05 16:48 | 45.63855 | 8.71833 | 754 ft | 12 kts | 207° |
| 2026-05-05 16:48 | 45.63771 | 8.71835 | 756 ft | 13 kts | 169° |
| 2026-05-05 16:49 | 45.63671 | 8.71861 | 754 ft | 16 kts | 169° |
| 2026-05-05 16:49 | 45.63556 | 8.71893 | 754 ft | 18 kts | 169° |
| 2026-05-05 16:49 | 45.63431 | 8.71926 | 753 ft | 19 kts | 169° |
| 2026-05-05 16:49 | 45.63318 | 8.71957 | 754 ft | 0 kts | 169° |
| 2026-05-05 16:50 | 45.63313 | 8.71953 | 754 ft | 2 kts | 199° |
| 2026-05-05 16:50 | 45.63307 | 8.71907 | 755 ft | 12 kts | 263° |
| 2026-05-05 16:50 | 45.63291 | 8.71784 | 755 ft | 13 kts | 259° |
| 2026-05-05 16:51 | 45.63266 | 8.71687 | 753 ft | 4 kts | 220° |
| 2026-05-05 16:51 | 45.63249 | 8.71676 | 755 ft | 3 kts | 204° |
| 2026-05-05 16:51 | 45.63233 | 8.71665 | 753 ft | 2 kts | 211° |
| 2026-05-05 16:51 | 45.63227 | 8.71656 | 754 ft | 5 kts | 224° |
| 2026-05-05 16:52 | 45.63197 | 8.71599 | 753 ft | 5 kts | 236° |
| 2026-05-05 16:52 | 45.63183 | 8.71569 | 754 ft | 0 kts | 237° |
| 2026-05-05 16:52 | 45.63180 | 8.71563 | 754 ft | 0 kts | 237° |